Time;durP1;ratioP1;P1;durP2;ratioP2;P2;SDS_P1;SDS_P2;PMS_P1;PMS_P2;Temp;Humidity;BMP_temperature;BMP_pressure;BME280_temperature;BME280_humidity;BME280_pressure;Samples;Min_cycle;Max_cycle;Signal;HPM_P1;HPM_P2
2024/01/28 00:01:46;;;;;;;14.63;7.93;;;;;;;;;;760471;180;918905;-68
2024/01/28 00:04:12;;;;;;;18.03;9.57;;;;;;;;;;779244;179;918771;-68
2024/01/28 00:06:38;;;;;;;27.53;8.77;;;;;;;;;;773829;179;1021218;-68
2024/01/28 00:09:04;;;;;;;14.82;7.90;;;;;;;;;;775479;179;919240;-69
2024/01/28 00:11:30;;;;;;;16.33;8.50;;;;;;;;;;775174;179;920947;-68
2024/01/28 00:13:56;;;;;;;17.70;7.63;;;;;;;;;;769797;180;918756;-68
2024/01/28 00:16:22;;;;;;;16.80;7.95;;;;;;;;;;769451;180;919541;-68
2024/01/28 00:18:47;;;;;;;20.23;8.10;;;;;;;;;;772505;179;919917;-68
2024/01/28 00:21:13;;;;;;;12.67;8.80;;;;;;;;;;779277;180;917516;-68
2024/01/28 00:23:39;;;;;;;16.27;7.53;;;;;;;;;;774724;179;930205;-68
2024/01/28 00:26:07;;;;;;;9.97;7.57;;;;;;;;;;774184;179;918489;-67
2024/01/28 00:28:31;;;;;;;10.67;7.00;;;;;;;;;;777987;179;941934;-69
2024/01/28 00:30:57;;;;;;;21.57;8.50;;;;;;;;;;773120;179;920515;-69
2024/01/28 00:33:23;;;;;;;14.30;7.50;;;;;;;;;;774538;179;908840;-68
2024/01/28 00:35:48;;;;;;;16.60;8.43;;;;;;;;;;778943;179;915091;-68
2024/01/28 00:38:14;;;;;;;14.97;7.97;;;;;;;;;;773691;179;914077;-68
2024/01/28 00:40:40;;;;;;;13.50;7.97;;;;;;;;;;771228;180;919240;-68
2024/01/28 00:43:06;;;;;;;18.50;8.17;;;;;;;;;;771302;180;919445;-68
2024/01/28 00:45:32;;;;;;;13.13;7.10;;;;;;;;;;778999;180;919362;-67
2024/01/28 00:47:58;;;;;;;10.60;7.47;;;;;;;;;;774159;180;918999;-68
2024/01/28 00:50:23;;;;;;;13.90;8.20;;;;;;;;;;761408;183;937104;-68
2024/01/28 00:52:49;;;;;;;17.67;8.40;;;;;;;;;;775179;180;917133;-68
2024/01/28 00:55:15;;;;;;;14.68;7.72;;;;;;;;;;774048;180;919382;-67
2024/01/28 00:57:41;;;;;;;19.27;8.30;;;;;;;;;;773599;180;919572;-68
2024/01/28 01:00:08;;;;;;;14.30;7.33;;;;;;;;;;776805;179;939131;-68
2024/01/28 01:02:33;;;;;;;9.13;6.20;;;;;;;;;;775578;180;1022689;-69
2024/01/28 01:04:59;;;;;;;14.30;7.57;;;;;;;;;;770805;180;1020069;-69
2024/01/28 01:07:25;;;;;;;10.30;6.30;;;;;;;;;;771353;179;917101;-68
2024/01/28 01:09:51;;;;;;;12.23;7.00;;;;;;;;;;776105;177;919873;-68
2024/01/28 01:12:17;;;;;;;17.63;7.73;;;;;;;;;;773426;179;890135;-68
2024/01/28 01:14:43;;;;;;;12.77;6.82;;;;;;;;;;771049;180;1020935;-69
2024/01/28 01:17:09;;;;;;;16.07;8.90;;;;;;;;;;781241;179;1020034;-68
2024/01/28 01:19:35;;;;;;;23.03;8.03;;;;;;;;;;774742;179;918937;-68
2024/01/28 01:22:02;;;;;;;14.57;7.07;;;;;;;;;;773966;179;915908;-68
2024/01/28 01:24:26;;;;;;;15.67;7.50;;;;;;;;;;779109;179;922759;-69
2024/01/28 01:26:52;;;;;;;20.50;7.80;;;;;;;;;;775976;179;1021215;-68
2024/01/28 01:29:18;;;;;;;10.87;6.70;;;;;;;;;;773180;179;917894;-69
2024/01/28 01:31:44;;;;;;;14.30;7.27;;;;;;;;;;773485;179;920537;-69
2024/01/28 01:34:10;;;;;;;11.10;7.40;;;;;;;;;;768496;179;918882;-68
2024/01/28 01:36:36;;;;;;;16.40;8.67;;;;;;;;;;773794;179;919488;-68
2024/01/28 01:39:01;;;;;;;14.05;6.75;;;;;;;;;;772499;180;946282;-69
2024/01/28 01:41:27;;;;;;;11.07;6.60;;;;;;;;;;779005;180;918920;-68
2024/01/28 01:43:53;;;;;;;11.10;5.87;;;;;;;;;;765175;177;919679;-68
2024/01/28 01:46:20;;;;;;;12.63;7.43;;;;;;;;;;768899;179;921648;-69
2024/01/28 01:48:46;;;;;;;19.90;7.10;;;;;;;;;;780562;177;918313;-69
2024/01/28 01:51:11;;;;;;;11.93;6.27;;;;;;;;;;766023;179;919571;-69
2024/01/28 01:53:36;;;;;;;9.70;6.27;;;;;;;;;;768694;179;1020300;-69
2024/01/28 01:56:02;;;;;;;16.93;8.17;;;;;;;;;;777782;179;1019918;-67
2024/01/28 01:58:28;;;;;;;11.90;7.13;;;;;;;;;;773256;179;1020048;-68
2024/01/28 02:00:54;;;;;;;14.90;7.37;;;;;;;;;;775340;180;921418;-68
2024/01/28 02:03:20;;;;;;;13.67;7.00;;;;;;;;;;773433;180;918873;-69
2024/01/28 02:05:46;;;;;;;14.13;6.33;;;;;;;;;;776650;178;919307;-69
2024/01/28 02:08:12;;;;;;;11.82;7.62;;;;;;;;;;774955;180;919327;-69
2024/01/28 02:10:37;;;;;;;10.93;6.37;;;;;;;;;;771122;179;918802;-69
2024/01/28 02:13:03;;;;;;;18.52;7.43;;;;;;;;;;779105;180;918879;-68
2024/01/28 02:15:29;;;;;;;14.17;7.90;;;;;;;;;;772971;180;917671;-68
2024/01/28 02:17:55;;;;;;;17.37;7.57;;;;;;;;;;770545;179;920399;-69
2024/01/28 02:20:21;;;;;;;19.63;7.47;;;;;;;;;;778443;180;918629;-69
2024/01/28 02:22:47;;;;;;;15.87;7.40;;;;;;;;;;772697;180;918514;-70
2024/01/28 02:25:12;;;;;;;16.70;6.75;;;;;;;;;;772898;180;919084;-68
2024/01/28 02:27:38;;;;;;;14.73;6.90;;;;;;;;;;778840;178;918612;-69
2024/01/28 02:30:05;;;;;;;19.00;8.13;;;;;;;;;;772339;179;1009454;-69
2024/01/28 02:32:30;;;;;;;11.03;6.50;;;;;;;;;;775396;179;916874;-69
2024/01/28 02:34:57;;;;;;;10.90;7.30;;;;;;;;;;772305;179;1022047;-69
2024/01/28 02:37:22;;;;;;;14.15;8.90;;;;;;;;;;779579;179;940811;-68
2024/01/28 02:39:48;;;;;;;12.03;7.43;;;;;;;;;;773865;179;919092;-68
2024/01/28 02:42:14;;;;;;;13.90;7.37;;;;;;;;;;774072;179;919080;-68
2024/01/28 02:44:40;;;;;;;11.30;7.30;;;;;;;;;;778884;179;1021755;-68
2024/01/28 02:47:06;;;;;;;13.50;6.70;;;;;;;;;;780947;179;1021336;-69
2024/01/28 02:49:31;;;;;;;15.43;10.33;;;;;;;;;;772442;179;917780;-68
2024/01/28 02:51:57;;;;;;;17.67;9.13;;;;;;;;;;777288;179;1020633;-68
2024/01/28 02:54:23;;;;;;;16.93;9.07;;;;;;;;;;771796;179;918814;-69
2024/01/28 02:56:49;;;;;;;15.97;8.10;;;;;;;;;;772972;179;917975;-68
2024/01/28 02:59:15;;;;;;;17.40;8.27;;;;;;;;;;774620;179;918285;-68
2024/01/28 03:01:43;;;;;;;14.73;8.80;;;;;;;;;;769917;180;918798;-71
2024/01/28 03:04:09;;;;;;;17.50;9.40;;;;;;;;;;768897;180;918583;-69
2024/01/28 03:06:36;;;;;;;12.37;7.80;;;;;;;;;;771140;180;918635;-68
2024/01/28 03:09:01;;;;;;;20.43;8.13;;;;;;;;;;780174;180;862225;-68
2024/01/28 03:11:27;;;;;;;17.80;8.50;;;;;;;;;;770228;180;918127;-69
2024/01/28 03:13:53;;;;;;;20.20;8.50;;;;;;;;;;767797;180;921898;-69
2024/01/28 03:16:18;;;;;;;20.20;8.53;;;;;;;;;;778634;179;916622;-68
2024/01/28 03:18:44;;;;;;;18.93;8.40;;;;;;;;;;772586;180;916299;-69
2024/01/28 03:21:10;;;;;;;11.30;7.27;;;;;;;;;;772809;178;922739;-69
2024/01/28 03:23:36;;;;;;;17.10;7.33;;;;;;;;;;774429;180;918711;-69
2024/01/28 03:26:02;;;;;;;19.50;7.93;;;;;;;;;;776310;180;919291;-69
2024/01/28 03:28:28;;;;;;;10.80;7.03;;;;;;;;;;772342;180;920557;-68
2024/01/28 03:30:53;;;;;;;18.83;8.20;;;;;;;;;;771278;179;919186;-69
2024/01/28 03:33:20;;;;;;;12.23;7.30;;;;;;;;;;777581;180;916380;-69
2024/01/28 03:35:45;;;;;;;16.10;8.57;;;;;;;;;;776327;179;917798;-69
2024/01/28 03:38:11;;;;;;;14.17;8.20;;;;;;;;;;774919;179;918242;-69
2024/01/28 03:40:37;;;;;;;14.70;9.47;;;;;;;;;;779562;179;964347;-69
2024/01/28 03:43:03;;;;;;;16.17;7.97;;;;;;;;;;769211;179;1737541;-69
2024/01/28 03:45:28;;;;;;;13.33;7.80;;;;;;;;;;774245;179;938828;-69
2024/01/28 03:47:54;;;;;;;17.03;6.60;;;;;;;;;;781627;179;901480;-69
2024/01/28 03:50:21;;;;;;;16.10;6.33;;;;;;;;;;774316;179;919660;-69
2024/01/28 03:52:46;;;;;;;11.60;7.60;;;;;;;;;;772313;179;919242;-69
2024/01/28 03:55:12;;;;;;;13.20;7.40;;;;;;;;;;773675;179;918681;-68
2024/01/28 03:57:39;;;;;;;14.53;7.77;;;;;;;;;;779762;179;897454;-68
2024/01/28 04:00:06;;;;;;;18.40;8.40;;;;;;;;;;776533;179;918647;-68
2024/01/28 04:02:30;;;;;;;17.37;7.43;;;;;;;;;;773055;180;919336;-69
2024/01/28 04:04:56;;;;;;;18.43;6.40;;;;;;;;;;778063;179;919281;-68
2024/01/28 04:07:22;;;;;;;16.70;6.30;;;;;;;;;;773124;179;918993;-68
2024/01/28 04:09:47;;;;;;;16.57;9.40;;;;;;;;;;771835;179;918706;-68
2024/01/28 04:12:13;;;;;;;15.65;7.90;;;;;;;;;;773060;179;918748;-68
2024/01/28 04:14:39;;;;;;;19.43;6.90;;;;;;;;;;764988;179;920068;-69
2024/01/28 04:17:06;;;;;;;19.53;7.13;;;;;;;;;;772558;180;919061;-69
2024/01/28 04:19:31;;;;;;;18.27;7.23;;;;;;;;;;771998;179;917173;-69
2024/01/28 04:21:57;;;;;;;15.30;7.20;;;;;;;;;;775322;180;918454;-69
2024/01/28 04:24:23;;;;;;;12.00;6.37;;;;;;;;;;772290;180;1020919;-69
2024/01/28 04:26:49;;;;;;;25.13;7.17;;;;;;;;;;773579;179;918960;-69
2024/01/28 04:29:14;;;;;;;12.40;6.40;;;;;;;;;;779399;180;917333;-69
2024/01/28 04:31:41;;;;;;;20.00;9.20;;;;;;;;;;773788;180;918973;-68
2024/01/28 04:34:07;;;;;;;13.00;7.50;;;;;;;;;;774225;178;918157;-69
2024/01/28 04:36:33;;;;;;;16.77;7.53;;;;;;;;;;768056;180;917783;-69
2024/01/28 04:38:59;;;;;;;17.23;8.23;;;;;;;;;;769525;180;916132;-69
2024/01/28 04:41:25;;;;;;;11.83;7.40;;;;;;;;;;773210;180;1001675;-69
2024/01/28 04:43:51;;;;;;;12.47;7.50;;;;;;;;;;776533;179;918727;-68
2024/01/28 04:46:16;;;;;;;16.55;8.35;;;;;;;;;;772076;179;907768;-69
2024/01/28 04:48:42;;;;;;;16.23;9.50;;;;;;;;;;771394;180;919154;-68
2024/01/28 04:51:08;;;;;;;14.93;8.20;;;;;;;;;;772734;179;1020445;-69
2024/01/28 04:53:34;;;;;;;16.57;8.57;;;;;;;;;;779448;179;919020;-69
2024/01/28 04:56:00;;;;;;;23.10;10.10;;;;;;;;;;773398;179;993323;-69
2024/01/28 04:58:25;;;;;;;23.00;8.53;;;;;;;;;;774059;179;918925;-69
2024/01/28 05:00:51;;;;;;;14.97;8.20;;;;;;;;;;779262;180;938590;-67
2024/01/28 05:03:17;;;;;;;14.80;8.20;;;;;;;;;;773344;180;921573;-70
2024/01/28 05:05:43;;;;;;;16.92;9.73;;;;;;;;;;773426;179;918150;-69
2024/01/28 05:08:09;;;;;;;19.93;9.63;;;;;;;;;;778489;179;918896;-68
2024/01/28 05:10:35;;;;;;;20.23;10.00;;;;;;;;;;772019;179;920386;-69
2024/01/28 05:13:01;;;;;;;15.52;9.00;;;;;;;;;;773461;177;918671;-68
2024/01/28 05:15:26;;;;;;;20.83;9.90;;;;;;;;;;768405;179;918982;-68
2024/01/28 05:17:52;;;;;;;16.27;9.80;;;;;;;;;;772825;179;918940;-69
2024/01/28 05:20:18;;;;;;;16.50;8.73;;;;;;;;;;776345;179;919253;-68
2024/01/28 05:22:44;;;;;;;22.60;10.07;;;;;;;;;;772880;179;920220;-69
2024/01/28 05:25:10;;;;;;;16.43;9.20;;;;;;;;;;778903;179;917034;-68
2024/01/28 05:27:36;;;;;;;20.33;9.63;;;;;;;;;;771821;179;919378;-69
2024/01/28 05:30:03;;;;;;;17.77;8.80;;;;;;;;;;771271;179;933963;-69
2024/01/28 05:32:28;;;;;;;16.37;8.70;;;;;;;;;;763313;181;918902;-69
2024/01/28 05:34:54;;;;;;;15.97;8.77;;;;;;;;;;773474;180;918902;-68
2024/01/28 05:37:20;;;;;;;15.43;8.40;;;;;;;;;;771862;179;917883;-69
2024/01/28 05:39:47;;;;;;;16.25;9.65;;;;;;;;;;778910;179;903756;-69
2024/01/28 05:42:12;;;;;;;16.33;7.97;;;;;;;;;;767008;180;915741;-69
2024/01/28 05:44:38;;;;;;;16.87;8.90;;;;;;;;;;768845;180;919835;-69
2024/01/28 05:47:05;;;;;;;12.90;8.07;;;;;;;;;;773522;180;919246;-68
2024/01/28 05:49:30;;;;;;;19.43;9.47;;;;;;;;;;781105;180;919397;-69
2024/01/28 05:51:56;;;;;;;20.40;8.90;;;;;;;;;;772853;180;918891;-68
2024/01/28 05:54:22;;;;;;;13.17;7.40;;;;;;;;;;775783;180;942711;-69
2024/01/28 05:56:48;;;;;;;12.63;7.70;;;;;;;;;;780479;180;627972;-69
2024/01/28 05:59:14;;;;;;;16.27;8.20;;;;;;;;;;773275;179;919273;-69
2024/01/28 06:01:40;;;;;;;15.90;8.33;;;;;;;;;;772506;178;918861;-69
2024/01/28 06:04:07;;;;;;;17.90;9.20;;;;;;;;;;778751;179;917484;-69
2024/01/28 06:06:31;;;;;;;13.00;8.77;;;;;;;;;;770744;176;931965;-69
2024/01/28 06:08:57;;;;;;;13.47;7.37;;;;;;;;;;770110;179;913563;-69
2024/01/28 06:11:23;;;;;;;14.43;7.60;;;;;;;;;;778272;177;920835;-69
2024/01/28 06:13:49;;;;;;;14.53;8.80;;;;;;;;;;776943;179;1013711;-69
2024/01/28 06:16:15;;;;;;;12.90;8.20;;;;;;;;;;774250;179;919240;-68
2024/01/28 06:18:43;;;;;;;11.80;7.30;;;;;;;;;;771480;180;919992;-69
2024/01/28 06:21:07;;;;;;;15.97;8.10;;;;;;;;;;778615;179;919206;-68
2024/01/28 06:23:33;;;;;;;14.57;7.17;;;;;;;;;;774497;179;917725;-69
2024/01/28 06:25:59;;;;;;;10.17;6.80;;;;;;;;;;776839;179;823995;-68
2024/01/28 06:28:25;;;;;;;11.67;7.00;;;;;;;;;;779633;180;815129;-68
2024/01/28 06:30:51;;;;;;;12.07;6.80;;;;;;;;;;773166;180;917163;-69
2024/01/28 06:33:17;;;;;;;15.18;7.60;;;;;;;;;;773535;179;919251;-68
2024/01/28 06:35:42;;;;;;;12.17;6.80;;;;;;;;;;772556;179;915450;-68
2024/01/28 06:38:08;;;;;;;14.87;7.53;;;;;;;;;;776129;179;914193;-69
2024/01/28 06:40:34;;;;;;;13.47;6.93;;;;;;;;;;773102;179;947060;-69
2024/01/28 06:43:00;;;;;;;14.30;6.80;;;;;;;;;;771217;179;1121030;-69
2024/01/28 06:45:26;;;;;;;9.95;6.68;;;;;;;;;;778662;180;914112;-68
2024/01/28 06:47:52;;;;;;;14.00;7.00;;;;;;;;;;772533;179;1019097;-69
2024/01/28 06:50:17;;;;;;;11.27;7.62;;;;;;;;;;773611;180;918042;-69
2024/01/28 06:52:43;;;;;;;13.70;7.27;;;;;;;;;;776907;180;916960;-68
2024/01/28 06:55:09;;;;;;;13.97;8.20;;;;;;;;;;773744;179;913149;-69
2024/01/28 06:57:35;;;;;;;15.27;8.23;;;;;;;;;;770961;179;1024548;-68
2024/01/28 07:00:04;;;;;;;17.93;8.27;;;;;;;;;;777279;179;920337;-69
2024/01/28 07:02:27;;;;;;;14.10;8.53;;;;;;;;;;772201;177;921739;-69
2024/01/28 07:04:53;;;;;;;10.13;6.73;;;;;;;;;;772977;179;921591;-68
2024/01/28 07:07:19;;;;;;;11.90;6.77;;;;;;;;;;771417;180;930579;-69
2024/01/28 07:09:44;;;;;;;17.10;7.70;;;;;;;;;;777712;180;916606;-68
2024/01/28 07:12:10;;;;;;;15.03;7.97;;;;;;;;;;773037;180;918243;-69
2024/01/28 07:14:36;;;;;;;12.60;6.80;;;;;;;;;;776872;177;918838;-69
2024/01/28 07:17:02;;;;;;;12.30;6.87;;;;;;;;;;780996;179;918517;-69
2024/01/28 07:19:28;;;;;;;16.13;7.83;;;;;;;;;;775356;179;911553;-69
2024/01/28 07:21:54;;;;;;;12.70;8.90;;;;;;;;;;773569;179;1015523;-69
2024/01/28 07:24:20;;;;;;;11.77;7.03;;;;;;;;;;777611;179;912020;-67
2024/01/28 07:26:46;;;;;;;12.03;7.17;;;;;;;;;;772961;179;1015090;-69
2024/01/28 07:29:11;;;;;;;11.60;6.63;;;;;;;;;;773493;179;925959;-69
2024/01/28 07:31:38;;;;;;;13.17;7.53;;;;;;;;;;773031;180;933745;-69
2024/01/28 07:34:03;;;;;;;18.53;6.93;;;;;;;;;;765554;182;918647;-69
2024/01/28 07:36:29;;;;;;;11.63;6.40;;;;;;;;;;763438;179;1020504;-69
2024/01/28 07:38:55;;;;;;;16.15;6.43;;;;;;;;;;773070;179;919747;-69
2024/01/28 07:41:21;;;;;;;11.98;6.87;;;;;;;;;;780036;180;918027;-69
2024/01/28 07:43:46;;;;;;;11.90;6.60;;;;;;;;;;760713;181;920348;-69
2024/01/28 07:46:12;;;;;;;13.10;8.40;;;;;;;;;;772282;179;898658;-69
2024/01/28 07:48:39;;;;;;;16.23;7.43;;;;;;;;;;782764;178;625411;-69
2024/01/28 07:51:04;;;;;;;13.23;7.70;;;;;;;;;;760978;181;919790;-69
2024/01/28 07:53:30;;;;;;;12.77;8.43;;;;;;;;;;769694;179;919451;-68
2024/01/28 07:55:56;;;;;;;12.70;6.70;;;;;;;;;;777099;179;931012;-69
2024/01/28 07:58:21;;;;;;;12.63;7.50;;;;;;;;;;770914;180;918743;-69
2024/01/28 08:00:47;;;;;;;20.73;7.05;;;;;;;;;;772412;179;918916;-69
2024/01/28 08:03:13;;;;;;;9.70;6.80;;;;;;;;;;771470;178;919104;-69
2024/01/28 08:05:40;;;;;;;14.23;8.33;;;;;;;;;;767412;181;917357;-68
2024/01/28 08:08:05;;;;;;;13.83;7.70;;;;;;;;;;770794;180;918084;-69
2024/01/28 08:10:31;;;;;;;15.23;7.40;;;;;;;;;;772005;180;920998;-69
2024/01/28 08:12:57;;;;;;;16.30;7.17;;;;;;;;;;776629;180;1224359;-69
2024/01/28 08:15:23;;;;;;;12.03;7.33;;;;;;;;;;774293;179;1019817;-68
2024/01/28 08:17:50;;;;;;;15.60;7.37;;;;;;;;;;780741;179;715860;-68
2024/01/28 08:20:16;;;;;;;15.83;7.33;;;;;;;;;;779379;180;1021023;-68
2024/01/28 08:22:41;;;;;;;12.13;7.07;;;;;;;;;;772121;179;978319;-69
2024/01/28 08:25:07;;;;;;;13.90;7.80;;;;;;;;;;775143;179;917447;-68
2024/01/28 08:27:33;;;;;;;22.87;11.63;;;;;;;;;;777463;178;684288;-69
2024/01/28 08:29:59;;;;;;;22.43;11.97;;;;;;;;;;772146;180;625808;-69
2024/01/28 08:32:25;;;;;;;31.33;15.00;;;;;;;;;;772616;179;643527;-68
2024/01/28 08:34:51;;;;;;;34.33;17.87;;;;;;;;;;776840;177;765415;-69
2024/01/28 08:37:16;;;;;;;31.70;14.37;;;;;;;;;;769026;181;628004;-69
2024/01/28 08:39:42;;;;;;;28.83;16.50;;;;;;;;;;776959;179;637085;-69
2024/01/28 08:42:08;;;;;;;29.23;14.60;;;;;;;;;;777220;179;820046;-69
2024/01/28 08:44:34;;;;;;;22.37;12.83;;;;;;;;;;780602;180;651839;-69
2024/01/28 08:47:00;;;;;;;20.33;12.27;;;;;;;;;;778036;179;619963;-69
2024/01/28 08:49:26;;;;;;;20.63;10.77;;;;;;;;;;778505;179;655922;-69
2024/01/28 08:51:52;;;;;;;15.87;8.90;;;;;;;;;;781460;179;637927;-69
2024/01/28 08:54:17;;;;;;;13.80;8.33;;;;;;;;;;775860;179;920545;-69
2024/01/28 08:56:43;;;;;;;20.87;9.87;;;;;;;;;;774473;179;918393;-69
2024/01/28 08:59:09;;;;;;;24.90;9.97;;;;;;;;;;774224;179;924837;-69
2024/01/28 09:01:35;;;;;;;22.77;9.97;;;;;;;;;;777190;180;919550;-68
2024/01/28 09:04:01;;;;;;;15.20;9.43;;;;;;;;;;770780;180;918764;-69
2024/01/28 09:06:26;;;;;;;22.47;9.03;;;;;;;;;;771277;180;919144;-69
2024/01/28 09:08:52;;;;;;;17.50;9.97;;;;;;;;;;780345;180;921257;-68
2024/01/28 09:11:18;;;;;;;25.80;9.27;;;;;;;;;;760187;181;919013;-69
2024/01/28 09:13:44;;;;;;;21.23;10.60;;;;;;;;;;778475;173;1020888;-63
2024/01/28 09:16:10;;;;;;;27.67;11.23;;;;;;;;;;786891;177;817538;-66
2024/01/28 09:18:36;;;;;;;26.10;10.60;;;;;;;;;;778908;178;815477;-65
2024/01/28 09:21:03;;;;;;;26.20;11.07;;;;;;;;;;778017;177;918902;-65
2024/01/28 09:23:27;;;;;;;39.07;12.60;;;;;;;;;;780243;177;918366;-65
2024/01/28 09:25:53;;;;;;;20.80;10.70;;;;;;;;;;781709;178;817262;-66
2024/01/28 09:28:19;;;;;;;19.30;8.70;;;;;;;;;;785833;177;899016;-65
2024/01/28 09:30:45;;;;;;;15.20;8.50;;;;;;;;;;779835;176;920413;-65
2024/01/28 09:33:11;;;;;;;24.57;8.40;;;;;;;;;;785654;176;918050;-65
2024/01/28 09:35:39;;;;;;;26.83;10.93;;;;;;;;;;780411;177;810371;-66
2024/01/28 09:38:02;;;;;;;18.23;8.23;;;;;;;;;;782031;175;717691;-66
2024/01/28 09:40:28;;;;;;;15.63;6.90;;;;;;;;;;789516;177;646169;-65
2024/01/28 09:42:55;;;;;;;17.90;7.33;;;;;;;;;;787642;177;645803;-66
2024/01/28 09:45:21;;;;;;;11.17;5.30;;;;;;;;;;784823;177;625947;-66
2024/01/28 09:47:47;;;;;;;12.60;7.17;;;;;;;;;;785004;177;918495;-66
2024/01/28 09:50:12;;;;;;;15.30;8.57;;;;;;;;;;780990;178;622610;-66
2024/01/28 09:52:38;;;;;;;15.10;8.80;;;;;;;;;;779280;177;808621;-66
2024/01/28 09:55:04;;;;;;;19.00;7.60;;;;;;;;;;779626;178;917101;-65
2024/01/28 09:57:30;;;;;;;19.13;9.17;;;;;;;;;;787567;177;660225;-66
2024/01/28 09:59:56;;;;;;;19.10;10.10;;;;;;;;;;781533;177;625759;-66
2024/01/28 10:02:22;;;;;;;16.30;9.23;;;;;;;;;;783595;178;632154;-66
2024/01/28 10:04:48;;;;;;;14.27;8.63;;;;;;;;;;786596;178;622961;-65
2024/01/28 10:07:15;;;;;;;21.20;8.00;;;;;;;;;;784037;178;642049;-65
2024/01/28 10:09:39;;;;;;;16.57;9.03;;;;;;;;;;781424;178;646737;-65
2024/01/28 10:12:06;;;;;;;14.40;8.40;;;;;;;;;;787806;177;620216;-64
2024/01/28 10:14:31;;;;;;;15.90;9.40;;;;;;;;;;783944;177;720987;-66
2024/01/28 10:16:57;;;;;;;12.73;8.87;;;;;;;;;;775568;178;1015553;-65
2024/01/28 10:19:23;;;;;;;15.20;9.83;;;;;;;;;;780696;178;841438;-64
2024/01/28 10:21:49;;;;;;;16.97;9.40;;;;;;;;;;777189;179;812387;-67
2024/01/28 10:24:15;;;;;;;19.20;9.27;;;;;;;;;;786393;177;919403;-66
2024/01/28 10:26:41;;;;;;;17.90;9.87;;;;;;;;;;778839;178;919329;-65
2024/01/28 10:29:07;;;;;;;14.47;8.17;;;;;;;;;;784363;176;817549;-65
2024/01/28 10:31:33;;;;;;;13.53;8.73;;;;;;;;;;778590;177;915798;-65
2024/01/28 10:33:59;;;;;;;18.53;8.50;;;;;;;;;;779888;176;921965;-65
2024/01/28 10:36:25;;;;;;;12.70;8.83;;;;;;;;;;784575;177;864532;-64
2024/01/28 10:38:52;;;;;;;12.67;7.73;;;;;;;;;;779610;178;817572;-64
2024/01/28 10:41:17;;;;;;;15.63;8.23;;;;;;;;;;779910;178;919469;-67
2024/01/28 10:43:43;;;;;;;21.75;8.55;;;;;;;;;;780179;178;919133;-66
2024/01/28 10:46:08;;;;;;;17.23;8.50;;;;;;;;;;787440;177;919186;-66
2024/01/28 10:48:34;;;;;;;23.30;10.13;;;;;;;;;;781436;177;816200;-65
2024/01/28 10:51:00;;;;;;;16.47;9.10;;;;;;;;;;778849;177;918066;-65
2024/01/28 10:53:26;;;;;;;22.10;9.53;;;;;;;;;;788288;177;930801;-65
2024/01/28 10:55:52;;;;;;;19.57;8.70;;;;;;;;;;785726;177;818004;-66
2024/01/28 10:58:18;;;;;;;17.20;8.80;;;;;;;;;;781587;176;784618;-66
2024/01/28 11:00:44;;;;;;;19.03;9.93;;;;;;;;;;787496;178;818277;-65
2024/01/28 11:03:09;;;;;;;12.50;8.27;;;;;;;;;;776281;177;942467;-66
2024/01/28 11:05:36;;;;;;;15.73;9.07;;;;;;;;;;786891;178;634195;-66
2024/01/28 11:08:01;;;;;;;18.23;8.90;;;;;;;;;;787443;177;918542;-66
2024/01/28 11:10:28;;;;;;;21.03;9.50;;;;;;;;;;781200;178;820356;-66
2024/01/28 11:12:53;;;;;;;26.00;10.70;;;;;;;;;;780422;178;818943;-67
2024/01/28 11:15:19;;;;;;;18.10;8.67;;;;;;;;;;780194;177;816390;-65
2024/01/28 11:17:45;;;;;;;19.92;9.13;;;;;;;;;;785991;177;624745;-65
2024/01/28 11:20:11;;;;;;;15.67;8.40;;;;;;;;;;782520;178;713109;-65
2024/01/28 11:22:42;;;;;;;17.30;7.63;;;;;;;;;;780510;178;894081;-65
2024/01/28 11:25:08;;;;;;;20.43;7.60;;;;;;;;;;787805;177;785137;-66
2024/01/28 11:27:34;;;;;;;17.20;7.30;;;;;;;;;;776937;178;817287;-65
2024/01/28 11:30:00;;;;;;;14.40;7.30;;;;;;;;;;780181;177;919422;-65
2024/01/28 11:32:31;;;;;;;17.87;7.30;;;;;;;;;;781046;177;814546;-65
2024/01/28 11:34:57;;;;;;;13.07;6.90;;;;;;;;;;793623;177;623162;-65
2024/01/28 11:37:23;;;;;;;11.55;6.03;;;;;;;;;;788580;175;613264;-66
2024/01/28 11:39:49;;;;;;;12.97;5.67;;;;;;;;;;783804;177;634845;-65
2024/01/28 11:42:15;;;;;;;10.40;5.67;;;;;;;;;;784627;177;621991;-65
2024/01/28 11:44:41;;;;;;;11.00;6.07;;;;;;;;;;778224;177;858813;-64
2024/01/28 11:47:07;;;;;;;15.00;5.73;;;;;;;;;;777792;178;819436;-65
2024/01/28 11:49:33;;;;;;;17.48;5.70;;;;;;;;;;781630;177;914237;-66
2024/01/28 11:51:59;;;;;;;12.70;6.27;;;;;;;;;;777957;180;812045;-64
2024/01/28 11:54:24;;;;;;;17.77;7.43;;;;;;;;;;783672;177;708155;-66
2024/01/28 11:56:50;;;;;;;14.52;6.60;;;;;;;;;;784253;177;701635;-65
2024/01/28 11:59:16;;;;;;;12.63;5.83;;;;;;;;;;784743;177;816823;-67
2024/01/28 12:01:42;;;;;;;12.90;6.90;;;;;;;;;;780259;178;816539;-67
2024/01/28 12:04:09;;;;;;;21.17;7.17;;;;;;;;;;780230;177;918811;-66
2024/01/28 12:06:34;;;;;;;17.80;5.40;;;;;;;;;;786368;177;915583;-65
2024/01/28 12:09:00;;;;;;;10.47;5.53;;;;;;;;;;779171;177;920477;-67
2024/01/28 12:11:27;;;;;;;11.30;6.23;;;;;;;;;;781935;177;832738;-66
2024/01/28 12:13:51;;;;;;;15.23;7.63;;;;;;;;;;786317;177;839311;-66
2024/01/28 12:16:18;;;;;;;22.00;6.70;;;;;;;;;;780344;177;816658;-67
2024/01/28 12:18:43;;;;;;;14.73;5.97;;;;;;;;;;784980;177;715013;-67
2024/01/28 12:21:16;;;;;;;11.10;6.30;;;;;;;;;;778294;178;813888;-68
2024/01/28 12:23:41;;;;;;;12.10;7.17;;;;;;;;;;782363;177;848458;-66
2024/01/28 12:26:07;;;;;;;15.07;7.03;;;;;;;;;;779527;178;898071;-66
2024/01/28 12:28:33;;;;;;;12.80;7.20;;;;;;;;;;780110;178;918888;-67
2024/01/28 12:30:59;;;;;;;13.53;6.27;;;;;;;;;;785936;178;919331;-67
2024/01/28 12:33:24;;;;;;;18.63;6.70;;;;;;;;;;778445;175;871232;-67
2024/01/28 12:35:50;;;;;;;9.17;5.13;;;;;;;;;;779156;178;976967;-66
2024/01/28 12:38:16;;;;;;;13.77;5.40;;;;;;;;;;780346;178;925734;-67
2024/01/28 12:40:42;;;;;;;12.17;6.90;;;;;;;;;;779797;179;866823;-68
2024/01/28 12:43:08;;;;;;;15.33;6.37;;;;;;;;;;775832;177;945795;-67
2024/01/28 12:45:34;;;;;;;12.47;5.90;;;;;;;;;;776856;178;901791;-68
2024/01/28 12:47:59;;;;;;;23.93;9.60;;;;;;;;;;781201;178;908411;-67
2024/01/28 12:50:25;;;;;;;13.00;8.33;;;;;;;;;;779877;177;918621;-67
2024/01/28 12:52:51;;;;;;;17.47;8.97;;;;;;;;;;785205;176;919305;-66
2024/01/28 12:55:17;;;;;;;13.73;7.30;;;;;;;;;;783249;178;821131;-67
2024/01/28 12:57:43;;;;;;;10.03;5.43;;;;;;;;;;778827;177;927023;-67
2024/01/28 13:00:11;;;;;;;14.63;6.00;;;;;;;;;;778269;177;901087;-67
2024/01/28 13:02:36;;;;;;;10.63;5.85;;;;;;;;;;779056;176;868486;-66
2024/01/28 13:05:02;;;;;;;16.17;6.03;;;;;;;;;;787746;175;796305;-67
2024/01/28 13:07:28;;;;;;;21.37;12.80;;;;;;;;;;777316;177;897047;-66
2024/01/28 13:09:54;;;;;;;14.40;5.87;;;;;;;;;;776207;176;937715;-67
2024/01/28 13:12:19;;;;;;;26.40;13.80;;;;;;;;;;785013;177;914766;-67
2024/01/28 13:14:45;;;;;;;68.77;31.43;;;;;;;;;;780051;176;1217782;-66
2024/01/28 13:17:11;;;;;;;51.73;22.07;;;;;;;;;;780322;177;1051698;-67
2024/01/28 13:19:37;;;;;;;22.70;11.40;;;;;;;;;;783796;177;945132;-66
2024/01/28 13:22:03;;;;;;;19.92;9.80;;;;;;;;;;779045;178;933815;-66
2024/01/28 13:24:30;;;;;;;23.47;12.00;;;;;;;;;;780205;177;851029;-67
2024/01/28 13:26:56;;;;;;;21.05;8.52;;;;;;;;;;775265;178;2216862;-66
2024/01/28 13:29:22;;;;;;;21.97;12.73;;;;;;;;;;774468;178;1020391;-67
2024/01/28 13:31:48;;;;;;;12.27;6.50;;;;;;;;;;776841;178;919955;-67
2024/01/28 13:34:14;;;;;;;12.90;3.80;;;;;;;;;;779203;178;919266;-68
2024/01/28 13:36:40;;;;;;;14.50;7.25;;;;;;;;;;783086;178;914038;-67
2024/01/28 13:39:06;;;;;;;138.50;59.57;;;;;;;;;;778410;178;940472;-67
2024/01/28 13:41:32;;;;;;;135.00;54.83;;;;;;;;;;778709;178;901705;-67
2024/01/28 13:43:58;;;;;;;20.13;7.77;;;;;;;;;;783521;176;882282;-68
2024/01/28 13:46:24;;;;;;;7.70;3.70;;;;;;;;;;782101;177;845819;-67
2024/01/28 13:48:49;;;;;;;21.23;9.80;;;;;;;;;;780402;178;908222;-66
2024/01/28 13:51:16;;;;;;;18.50;6.97;;;;;;;;;;782007;177;856361;-66
2024/01/28 13:53:42;;;;;;;16.92;6.57;;;;;;;;;;775018;178;987313;-68
2024/01/28 13:56:07;;;;;;;29.00;12.43;;;;;;;;;;776171;178;918479;-66
2024/01/28 13:58:33;;;;;;;28.17;11.43;;;;;;;;;;784324;175;920790;-64
2024/01/28 14:00:59;;;;;;;16.60;9.90;;;;;;;;;;786794;178;806654;-67
2024/01/28 14:03:25;;;;;;;31.57;27.10;;;;;;;;;;778953;176;815117;-66
2024/01/28 14:05:51;;;;;;;27.30;20.80;;;;;;;;;;779421;177;919122;-68